• Join FlightAware (Why Join?)
  • Login
  • US Flag 
08:23AM EST


 

Airport Tracker/Info


-or-


 

Live Flight TrackerFlight Track Log ✈ CPT8773 ✈ 29-Apr-2014 ✈ KCPR - KCOD

Flight Track Log - Related Links

Times and Time Zones

All times are in EDT time to prevent confusion due to time zone crossing. See the CPT8773 flight status page for this flight to view local times or setup timezone preferences in your user account.

Time Position Orientation Groundspeed Altitude Reporting Facility
EDT Latitude Longitude Course Direction KTS MPH feet Rate Location/Type
09:25AM 42.9719 -106.5122 312° West 95 109 7,800  Level Salt Lake Center
09:26AM 42.9919 -106.5217 341° North 95 109 8,300 540 Climbing Denver Center
09:27AM 43.0189 -106.5317 345° North 95 109 9,000 600 Climbing Denver Center
09:28AM 43.0319 -106.6532 312° West  Level Estimated
09:28AM 43.0494 -106.5478 339° North 96 110 9,700  Level Denver Center
09:29AM 43.0566 -106.6911 312° West  Level Estimated
09:29AM 43.0792 -106.5633 339° North 97 112 10,400  Level Denver Center
09:30AM 43.0814 -106.7290 312° West  Level Estimated
09:30AM 43.1083 -106.5792 338° Northwest 98 113 11,100  Level Denver Center
09:31AM 43.1336 -106.5939 337° Northwest 96 110 11,800 420 Climbing Denver Center
09:32AM 43.1567 -106.6050 341° North 95 109 12,000 120 Climbing Denver Center
09:33AM 43.1828 -106.6178 340° North 99 114 12,100  Climbing Denver Center
09:34AM 43.2033 -106.6333 331° Northwest 103 119 12,100  Level Salt Lake Center
09:35AM 43.2303 -106.6461 341° North 104 120 12,100  Level Salt Lake Center
09:36AM 43.2586 -106.6617 338° Northwest 103 119 12,200  Climbing Salt Lake Center
09:37AM 43.2844 -106.6761 338° Northwest 103 119 12,100 -60 Descending Salt Lake Center
09:38AM 43.3108 -106.6931 335° Northwest 107 123 12,100  Level Salt Lake Center
09:39AM 43.3308 -106.7367 302° West 116 133 12,100  Level Salt Lake Center
09:40AM 43.3475 -106.7719 303° West 116 133 12,200  Climbing Salt Lake Center
09:41AM 43.3711 -106.8133 308° West 118 136 12,100 -60 Descending Salt Lake Center
09:42AM 43.3917 -106.8528 306° West 127 146 12,100  Level Salt Lake Center
09:43AM 43.4133 -106.8931 307° West 133 153 12,100  Level Salt Lake Center
09:44AM 43.4372 -106.9367 307° West 133 153 12,100  Level Salt Lake Center
09:45AM 43.4586 -106.9783 305° West 133 153 12,100 -60 Level Salt Lake Center
09:46AM 43.4786 -107.0164 306° West 130 150 12,000  Descending Salt Lake Center
09:47AM 43.4953 -107.0492 305° West 111 128 12,100  Climbing Salt Lake Center
09:48AM 43.5097 -107.0817 302° West 102 117 12,100  Level Salt Lake Center
09:49AM 43.5231 -107.1117 302° West 97 112 12,100  Level Salt Lake Center
09:50AM 43.5397 -107.1369 312° West 94 108 12,100  Level Salt Lake Center
09:51AM 43.5575 -107.1731 304° West 94 108 12,100  Level Salt Lake Center
09:52AM 43.5761 -107.2031 311° West 96 110 12,100  Level Salt Lake Center
09:53AM 43.5917 -107.2331 306° West 97 112 12,100  Level Salt Lake Center
09:54AM 43.6092 -107.2658 306° West 99 114 12,100  Level Salt Lake Center
09:55AM 43.6286 -107.2997 308° West 105 121 12,100  Level Salt Lake Center
09:56AM 43.6458 -107.3331 306° West 106 122 12,100  Level Salt Lake Center
09:57AM 43.6619 -107.3697 301° West 106 122 12,100  Level Salt Lake Center
09:58AM 43.6786 -107.4047 303° West 106 122 12,100  Level Salt Lake Center
09:59AM 43.6981 -107.4406 307° West 110 127 12,100  Level Salt Lake Center
10:00AM 43.7239 -107.4831 310° West 115 132 12,100  Level Salt Lake Center
10:01AM 43.7447 -107.5244 305° West 122 140 12,100  Level Salt Lake Center
10:02AM 43.7642 -107.5647 304° West 123 142 12,100  Level Salt Lake Center
10:03AM 43.7839 -107.6031 305° West 123 142 12,100  Level Salt Lake Center
10:04AM 43.7997 -107.6397 301° West 120 138 12,100  Level Salt Lake Center
10:06AM 43.8158 -107.6753 302° West 115 132 12,100  Level Salt Lake Center
10:07AM 43.8333 -107.7069 307° West 112 129 12,100  Level Salt Lake Center
10:08AM 43.8533 -107.7428 308° West 112 129 12,100  Level Salt Lake Center
10:09AM 43.8736 -107.7786 308° West 113 130 12,100  Level Salt Lake Center
10:10AM 43.8978 -107.8244 306° West 115 132 12,100  Level Salt Lake Center
10:11AM 43.9178 -107.8636 305° West 120 138 12,100  Level Salt Lake Center
10:12AM 43.9361 -107.9022 303° West 120 138 12,100  Level Salt Lake Center
10:13AM 43.9544 -107.9414 303° West 120 138 12,100  Level Salt Lake Center
10:14AM 43.9775 -107.9778 311° West 120 138 12,100  Level Salt Lake Center
10:15AM 44.0025 -108.0119 315° West 121 139 12,100 -60 Level Salt Lake Center
10:16AM 44.0253 -108.0483 311° West 122 140 12,000 -60 Descending Salt Lake Center
10:17AM 44.0453 -108.0858 307° West 122 140 12,000  Level Salt Lake Center
10:18AM 44.0664 -108.1297 304° West 121 139 12,000  Level Salt Lake Center
10:19AM 44.0850 -108.1658 306° West 119 137 12,000  Level Salt Lake Center
10:20AM 44.1028 -108.2014 305° West 117 135 12,000  Level Salt Lake Center
10:21AM 44.1200 -108.2381 303° West 116 133 12,000  Level Salt Lake Center
10:22AM 44.1389 -108.2736 307° West 116 133 12,000  Level Salt Lake Center
10:23AM 44.1583 -108.3111 306° West 116 133 12,000  Level Salt Lake Center
10:24AM 44.1781 -108.3497 305° West 116 133 12,000  Level Salt Lake Center
10:25AM 44.1978 -108.3881 306° West 117 135 12,000  Level Salt Lake Center
10:26AM 44.2200 -108.4331 305° West 117 135 12,000  Level Salt Lake Center
10:27AM 44.2397 -108.4700 307° West 117 135 12,000  Level Salt Lake Center
10:28AM 44.2597 -108.5086 306° West 117 135 12,000  Level Salt Lake Center
10:29AM 44.2800 -108.5483 305° West 119 137 12,000 -120 Level Salt Lake Center
10:30AM 44.2992 -108.5869 305° West 120 138 11,800 -540 Descending Salt Lake Center
10:31AM 44.3208 -108.6281 306° West 121 139 10,900 -780 Descending Salt Lake Center
10:32AM 44.3450 -108.6747 306° West 133 153 10,200 -720 Descending Salt Lake Center